Latest Weather Observations for East Sale

IDV60801

Issued at 11:31 am EST Friday 29 April 2016 (issued every 30 minutes, with the page automatically refreshed every 10 minutes)

About weather observations | Map of weather stations | Latest weather observations for VIC | Other Formats
Station Details ID: 085072 Name: EAST SALE AIRPORT Lat: -38.12 Lon: 147.13 Height: 4.6 m
Data from the previous 72 hours. | See also: Recent months at East Sale
Date/Time
EST
Temp
°C
App
Temp
°C
Dew
Point
Rel
Hum
%
Delta-T
°C
Wind Press
QNH
hPa
Press
MSL
hPa
Rain
since 9 am
mm
Dir
 
Spd
km/h
Gust
km/h
Spd
kts
Gust
kts
29/11:00am 21.6 22.9 16.1 71 3.3 N 4 7 2 4 1014.8 1014.8 0.0
29/10:30am 22.0 22.8 15.8 68 3.7 NNW 6 7 3 4 1015.1 1015.1 0.0
29/10:00am 22.5 22.0 13.8 58 5.1 NNE 9 11 5 6 1015.4 1015.4 0.0
29/09:30am 22.5 22.3 13.0 55 5.4 NNE 6 7 3 4 1015.9 1015.9 0.0
29/09:00am 22.0 21.9 13.4 58 4.9 NNE 6 7 3 4 1016.3 1016.3 0.0
29/08:30am 18.9 19.1 14.6 76 2.5 NNE 7 9 4 5 1016.5 1016.5 0.0
29/08:00am 16.5 15.8 14.2 86 1.3 SSE 11 13 6 7 1016.5 1016.5 0.0
29/07:30am 16.4 15.8 13.5 83 1.6 SE 9 11 5 6 1016.4 1016.4 0.0
29/07:00am 14.4 13.9 12.6 89 1.0 ESE 7 11 4 6 1016.1 1016.1 0.0
29/06:30am 14.0 14.3 12.2 89 1.0 ESE 2 7 1 4 1016.2 1016.2 0.0
29/06:00am 13.7 14.4 12.1 90 0.9 CALM 0 0 0 0 1016.6 1016.6 0.0
29/05:30am 14.2 15.0 12.4 89 1.0 CALM 0 7 0 4 1016.4 1016.4 0.0
29/05:00am 14.5 14.9 12.5 88 1.1 S 2 6 1 3 1016.4 1016.4 0.0
29/04:30am 14.5 15.4 12.9 90 0.9 CALM 0 0 0 0 1016.4 1016.4 0.0
29/04:00am 14.5 15.3 12.7 89 1.0 CALM 0 0 0 0 1016.3 1016.3 0.0
29/03:30am 14.6 14.4 13.0 90 0.9 NNW 6 7 3 4 1016.3 1016.3 0.0
29/03:00am 14.9 14.7 12.9 88 1.1 SSW 6 9 3 5 1016.5 1016.5 0.0
29/02:30am 15.8 16.6 12.7 82 1.7 CALM 0 0 0 0 1016.7 1016.7 0.0
29/02:00am 15.2 14.5 13.2 88 1.1 N 9 11 5 6 1017.2 1017.2 0.0
29/01:30am 15.6 15.3 13.4 87 1.2 SSE 7 11 4 6 1017.4 1017.4 0.0
29/01:00am 14.6 14.1 12.8 89 1.0 NW 7 9 4 5 1017.7 1017.7 0.0
29/12:30am 14.8 14.9 12.8 88 1.1 WSW 4 9 2 5 1017.7 1017.7 0.0
29/12:00am 14.7 14.9 12.9 89 1.0 SE 4 6 2 3 1017.9 1017.9 0.0
 
Date/Time
EST
Temp
°C
App
Temp
°C
Dew
Point
Rel
Hum
%
Delta-T
°C
Wind Press
QNH
hPa
Press
MSL
hPa
Rain
since 9 am
mm
Dir
 
Spd
km/h
Gust
km/h
Spd
kts
Gust
kts
28/11:30pm 14.9 15.8 12.9 88 1.1 CALM 0 4 0 2 1018.3 1018.3 0.0
28/11:00pm 14.8 15.3 12.8 88 1.1 SE 2 7 1 4 1018.3 1018.3 0.0
28/10:30pm 15.5 15.2 13.3 87 1.2 S 7 11 4 6 1018.4 1018.4 0.0
28/10:00pm 16.1 16.8 13.4 84 1.5 SSE 2 7 1 4 1018.5 1018.5 0.0
28/09:30pm 16.5 16.3 13.6 83 1.6 SSE 7 9 4 5 1018.5 1018.5 0.0
28/09:00pm 17.1 16.5 13.4 79 2.1 SSW 9 9 5 5 1018.4 1018.4 0.0
28/08:30pm 16.7 16.6 14.0 84 1.5 SE 7 9 4 5 1018.3 1018.3 0.0
28/08:00pm 17.0 16.5 13.9 82 1.8 ENE 9 13 5 7 1018.4 1018.4 0.0
28/07:30pm 17.6 17.1 13.7 78 2.2 E 9 13 5 7 1018.3 1018.3 0.0
28/07:00pm 17.5 16.5 13.4 77 2.3 E 11 15 6 8 1018.3 1018.3 0.0
28/06:30pm 18.3 18.2 14.0 76 2.5 ESE 7 9 4 5 1018.2 1018.2 0.0
28/06:00pm 18.9 18.5 14.2 74 2.7 ESE 9 13 5 7 1018.0 1018.0 0.0
28/05:30pm 19.6 19.7 14.4 72 3.0 ESE 7 9 4 5 1017.8 1017.8 0.0
28/05:00pm 20.5 21.7 14.8 70 3.3 SE 2 9 1 5 1017.8 1017.8 0.0
28/04:30pm 22.0 22.3 14.4 62 4.5 SSE 6 7 3 4 1017.7 1017.7 0.0
28/04:00pm 22.6 23.0 14.7 61 4.7 WSW 6 7 3 4 1017.7 1017.7 0.0
28/03:30pm 22.7 24.5 16.5 68 3.8 NNE 2 7 1 4 1017.6 1017.6 0.0
28/03:00pm 24.7 24.4 13.3 49 6.6 N 7 9 4 5 1017.3 1017.3 0.0
28/02:30pm 24.1 23.7 14.2 54 5.8 WNW 9 11 5 6 1017.4 1017.4 0.0
28/02:00pm 24.4 23.1 13.6 51 6.3 WNW 13 15 7 8 1017.4 1017.4 0.0
28/01:30pm 24.8 22.3 12.4 46 7.1 NW 17 22 9 12 1017.6 1017.6 0.0
28/01:00pm 25.6 23.7 11.7 42 7.9 NW 13 22 7 12 1017.7 1017.7 0.0
28/12:30pm 25.1 22.6 13.6 49 6.7 NNW 19 20 10 11 1017.7 1017.7 0.0
28/12:00pm 24.9 22.4 13.5 49 6.7 NNW 19 30 10 16 1018.0 1018.0 0.0
28/11:30am 25.8 22.6 11.9 42 7.9 N 20 28 11 15 1018.1 1018.1 0.0
28/11:00am 25.3 23.7 12.9 46 7.2 N 13 15 7 8 1018.6 1018.6 0.0
28/10:30am 22.6 23.6 16.9 70 3.5 N 7 9 4 5 1018.9 1018.9 0.0
28/10:00am 22.2 22.8 15.8 67 3.8 NNW 7 11 4 6 1018.9 1018.9 0.0
28/09:30am 21.6 21.1 15.0 66 3.9 N 11 13 6 7 1018.9 1018.9 0.0
28/09:00am 18.2 17.6 13.5 74 2.7 NNE 9 11 5 6 1018.9 1018.9 0.0
28/08:30am 15.1 14.7 12.4 84 1.5 NE 6 7 3 4 1018.8 1018.8 0.0
28/08:00am 13.3 13.0 11.4 88 1.0 E 4 9 2 5 1018.4 1018.4 0.0
28/07:30am 12.5 12.7 10.4 87 1.1 CALM 0 0 0 0 1018.0 1018.0 0.0
28/07:00am 11.8 11.9 10.2 90 0.8 CALM 0 0 0 0 1017.5 1017.5 0.0
28/06:30am 11.8 11.9 10.0 89 0.9 CALM 0 4 0 2 1017.4 1017.4 0.0
28/06:00am 11.9 12.0 10.3 90 0.8 CALM 0 6 0 3 1017.5 1017.5 0.0
28/05:30am 11.6 11.7 10.0 90 0.8 CALM 0 9 0 5 1017.4 1017.4 0.0
28/05:00am 12.1 11.2 10.5 90 0.8 S 6 7 3 4 1017.2 1017.2 0.0
28/04:30am 11.0 10.1 9.3 89 0.8 ENE 4 9 2 5 1017.0 1017.0 0.0
28/04:00am 11.2 9.8 9.6 90 0.8 S 7 13 4 7 1017.0 1017.0 0.0
28/03:30am 11.5 10.4 10.1 91 0.7 SSW 6 9 3 5 1017.1 1017.1 0.0
28/03:00am 11.9 11.4 10.8 93 0.6 S 4 11 2 6 1017.1 1017.1 0.0
28/02:30am 11.8 12.1 10.9 94 0.5 CALM 0 7 0 4 1017.3 1017.3 0.0
28/02:00am 11.7 12.0 10.8 94 0.5 CALM 0 2 0 1 1017.7 1017.7 0.0
28/01:30am 11.4 11.5 10.3 93 0.6 CALM 0 0 0 0 1017.7 1017.7 0.0
28/01:00am 11.4 10.3 10.1 92 0.7 N 6 9 3 5 1017.7 1017.7 0.0
28/12:30am 11.8 11.1 10.2 90 0.8 NW 4 7 2 4 1017.7 1017.7 0.0
28/12:00am 12.1 11.0 10.5 90 0.8 N 7 9 4 5 1018.0 1018.0 0.0
 
Date/Time
EST
Temp
°C
App
Temp
°C
Dew
Point
Rel
Hum
%
Delta-T
°C
Wind Press
QNH
hPa
Press
MSL
hPa
Rain
since 9 am
mm
Dir
 
Spd
km/h
Gust
km/h
Spd
kts
Gust
kts
27/11:30pm 12.4 11.4 10.3 87 1.1 NE 6 7 3 4 1018.1 1018.1 0.0
27/11:00pm 13.3 12.4 10.5 83 1.5 ESE 6 7 3 4 1018.4 1018.4 0.0
27/10:30pm 12.8 11.8 10.9 88 1.0 SE 7 9 4 5 1018.4 1018.4 0.0
27/10:00pm 13.2 12.4 11.6 90 0.8 SSE 7 9 4 5 1018.6 1018.6 0.0
27/09:30pm 13.3 13.6 11.0 86 1.2 CALM 0 0 0 0 1018.4 1018.4 0.0
27/09:00pm 13.3 11.0 10.3 82 1.6 NNE 13 15 7 8 1018.3 1018.3 0.0
27/08:30pm 14.9 13.8 11.9 82 1.6 NE 9 11 5 6 1018.5 1018.5 0.0
27/08:00pm 14.4 12.8 11.6 83 1.5 ENE 11 15 6 8 1018.6 1018.6 0.0
27/07:30pm 14.4 13.4 11.0 80 1.8 NE 7 9 4 5 1018.6 1018.6 0.0
27/07:00pm 15.8 14.5 12.4 80 1.9 ESE 11 15 6 8 1018.8 1018.8 0.0
27/06:30pm 15.7 14.9 10.9 73 2.6 SE 6 7 3 4 1018.4 1018.4 0.0
27/06:00pm 17.1 18.1 13.2 78 2.2 CALM 0 0 0 0 1018.0 1018.0 0.0
27/05:30pm 17.9 17.2 11.9 68 3.3 N 7 9 4 5 1017.3 1017.3 0.0
27/05:00pm 19.6 17.9 12.4 63 4.0 ENE 13 17 7 9 1017.3 1017.3 0.0
27/04:30pm 24.4 22.1 10.3 41 7.8 E 13 15 7 8 1017.3 1017.3 0.0
27/04:00pm 25.5 23.0 9.7 37 8.7 E 13 17 7 9 1017.5 1017.5 0.0
27/03:30pm 25.6 22.7 9.8 37 8.7 ENE 15 19 8 10 1017.6 1017.6 0.0
27/03:00pm 24.7 22.1 9.4 38 8.3 E 13 15 7 8 1017.8 1017.8 0.0
27/02:30pm 24.5 21.2 8.0 35 8.8 E 15 17 8 9 1017.9 1017.9 0.0
27/02:00pm 23.8 21.1 10.5 43 7.3 E 15 17 8 9 1018.2 1018.2 0.0
27/01:30pm 24.4 21.9 8.4 36 8.5 E 11 11 6 6 1018.6 1018.6 0.0
27/01:00pm 25.2 23.2 6.9 31 9.5 SSE 7 9 4 5 1019.0 1019.0 0.0
27/12:30pm 25.2 22.5 7.3 32 9.4 E 11 17 6 9 1019.3 1019.3 0.0
27/12:00pm 24.6 21.5 7.3 33 9.0 ENE 13 15 7 8 1019.9 1019.9 0.0
27/11:30am 21.6 20.8 13.0 58 4.9 ENE 9 13 5 7 1020.4 1020.4 0.0
27/11:00am 20.4 20.5 12.6 61 4.4 E 4 9 2 5 1021.0 1021.0 0.0
27/10:30am 18.5 17.9 11.6 64 3.8 ENE 6 9 3 5 1021.3 1021.3 0.0
27/10:00am 16.5 15.5 10.4 67 3.2 N 6 11 3 6 1021.7 1021.7 0.0
27/09:30am 15.0 14.1 10.6 75 2.3 N 6 9 3 5 1022.0 1022.0 0.0
27/09:00am 11.8 10.8 10.9 94 0.5 NW 7 13 4 7 1022.3 1022.3 0.0
27/08:30am 10.1 10.2 10.0 99 0.1 CALM 0 0 0 0 1022.3 1022.3 0.0
27/08:00am 7.5 6.9 7.4 99 0.0 CALM 0 0 0 0 1022.1 1022.1 0.0
27/07:30am 4.8 2.4 4.5 98 0.1 WNW 6 6 3 3 1022.0 1022.0 0.0
27/07:00am 3.8 1.1 3.5 98 0.1 SW 7 9 4 5 1021.7 1021.7 0.0
27/06:30am 3.5 0.7 3.2 98 0.1 SSW 7 13 4 7 1021.4 1021.4 0.0
27/06:12am 4.2 2.1 3.9 98 0.1 NNW 4 11 2 6 1021.6 1021.6 0.0
27/06:10am 4.2 2.5 3.9 98 0.1 NNW 2 11 1 6 1021.6 1021.6 0.0
27/06:00am 4.3 3.0 4.0 98 0.1 CALM 0 4 0 2 1021.6 1021.6 0.0
27/05:58am 4.4 2.7 4.1 98 0.1 WNW 2 7 1 4 1021.6 1021.6 0.0
27/05:30am 4.1 1.4 3.8 98 0.1 NW 7 11 4 6 1021.6 1021.6 0.0
27/05:21am 4.8 1.9 4.5 98 0.1 NW 9 11 5 6 1021.7 1021.7 0.0
27/05:00am 4.2 1.7 3.8 97 0.2 WNW 6 7 3 4 1021.6 1021.6 0.0
27/04:42am 5.0 2.5 4.7 98 0.1 WNW 7 9 4 5 1021.7 1021.7 0.0
27/04:41am 5.1 2.6 4.8 98 0.1 NW 7 7 4 4 1021.7 1021.7 0.0
27/04:30am 5.4 3.0 5.1 98 0.1 NW 7 9 4 5 1021.8 1021.8 0.0
27/04:08am 5.2 2.9 4.8 97 0.2 NW 6 7 3 4 1021.8 1021.8 0.0
27/04:00am 5.3 3.0 4.9 97 0.2 NW 6 7 3 4 1021.8 1021.8 0.0
27/03:57am 5.8 3.6 5.4 97 0.2 NW 6 7 3 4 1021.8 1021.8 0.0
27/03:47am 6.6 4.6 6.2 97 0.2 W 6 7 3 4 1021.9 1021.9 0.0
27/03:44am 5.9 3.7 5.5 97 0.2 W 6 7 3 4 1021.8 1021.8 0.0
27/03:30am 5.9 3.7 5.5 97 0.2 NW 6 7 3 4 1021.9 1021.9 0.0
27/03:26am 6.2 3.9 5.8 97 0.2 NW 7 9 4 5 1021.9 1021.9 0.0
27/03:00am 6.2 4.1 5.8 97 0.2 WNW 6 7 3 4 1022.0 1022.0 0.0
27/02:30am 8.5 6.4 8.1 97 0.2 WNW 9 13 5 7 1022.0 1022.0 0.0
27/02:00am 8.2 6.4 7.8 97 0.2 WNW 7 9 4 5 1022.3 1022.3 0.0
27/01:30am 7.5 5.5 6.9 96 0.3 NW 7 9 4 5 1022.5 1022.5 0.0
27/01:00am 7.7 5.7 7.0 95 0.3 NW 7 9 4 5 1022.8 1022.8 0.0
27/12:30am 8.3 6.0 7.5 95 0.4 NW 9 11 5 6 1023.1 1023.1 0.0
27/12:00am 9.3 7.3 8.8 97 0.2 NW 9 11 5 6 1023.2 1023.2 0.0
 
Date/Time
EST
Temp
°C
App
Temp
°C
Dew
Point
Rel
Hum
%
Delta-T
°C
Wind Press
QNH
hPa
Press
MSL
hPa
Rain
since 9 am
mm
Dir
 
Spd
km/h
Gust
km/h
Spd
kts
Gust
kts
26/11:30pm 9.8 7.6 9.3 97 0.2 NW 11 13 6 7 1023.5 1023.5 0.0
26/11:28pm 9.9 7.7 9.4 97 0.2 NW 11 13 6 7 1023.5 1023.5 0.0
26/11:00pm 10.4 9.1 9.8 96 0.3 ESE 7 9 4 5 1023.6 1023.6 0.0
26/10:55pm 10.3 8.9 9.7 96 0.3 ESE 7 9 4 5 1023.6 1023.6 0.0
26/10:30pm 10.9 10.3 10.3 96 0.3 S 4 7 2 4 1024.0 1024.0 0.0
26/10:00pm 10.7 10.0 9.9 95 0.4 S 4 6 2 3 1024.3 1024.3 0.0
26/09:30pm 11.6 10.7 10.7 94 0.5 SE 6 7 3 4 1024.4 1024.4 0.0
26/09:00pm 12.1 11.1 11.0 93 0.6 ESE 7 7 4 4 1024.6 1024.6 0.0
26/08:30pm 12.0 10.5 10.4 90 0.8 E 9 11 5 6 1024.7 1024.7 0.0
26/08:00pm 13.3 12.1 11.5 89 1.0 ESE 9 11 5 6 1024.8 1024.8 0.0
26/07:30pm 13.3 11.3 11.4 88 1.0 E 13 13 7 7 1024.9 1024.9 0.0
26/07:00pm 13.7 12.3 10.9 83 1.5 E 9 11 5 6 1024.9 1024.9 0.0
26/06:30pm 14.6 12.6 11.4 81 1.7 ENE 13 13 7 7 1024.7 1024.7 0.0
26/06:00pm 15.3 14.0 11.1 76 2.2 E 9 9 5 5 1024.6 1024.6 0.0
26/05:30pm 17.5 14.9 10.6 64 3.7 ENE 15 17 8 9 1024.4 1024.4 0.0
26/05:00pm 20.0 17.2 10.1 53 5.3 ENE 15 19 8 10 1024.4 1024.4 0.0
26/04:30pm 22.6 19.3 8.0 39 7.7 E 15 17 8 9 1024.3 1024.3 0.0
26/04:00pm 23.5 20.0 7.2 35 8.4 ENE 15 17 8 9 1024.4 1024.4 0.0
26/03:30pm 24.1 21.2 8.1 36 8.5 ENE 13 17 7 9 1024.6 1024.6 0.0
26/03:00pm 24.0 21.5 8.0 36 8.4 E 11 13 6 7 1024.9 1024.9 0.0
26/02:30pm 24.6 23.7 7.7 34 8.9 SSW 2 7 1 4 1025.1 1025.1 0.0
26/02:00pm 25.0 23.3 8.5 35 8.8 NNE 7 13 4 7 1025.3 1025.3 0.0
26/01:30pm 24.0 22.5 10.7 43 7.4 N 9 11 5 6 1025.7 1025.7 0.0
26/01:00pm 23.3 22.3 11.0 46 6.8 NW 7 11 4 6 1026.3 1026.3 0.0
26/12:30pm 22.7 21.8 11.4 49 6.3 W 7 11 4 6 1026.7 1026.7 0.0
26/12:00pm 21.8 20.9 11.2 51 5.8 NW 7 11 4 6 1027.2 1027.2 0.0

Other Formats:

Comma delimited format used in spreadsheet applications
http://www.bom.gov.au/fwo/IDV60801/IDV60801.94907.axf

JavaScript Object Notation format (JSON) in row-major order
http://www.bom.gov.au/fwo/IDV60801/IDV60801.94907.json